createdAt,value
2019-06-10T00:01:55.755Z,97853.95
2019-06-10T00:04:25.245Z,97847.04
2019-06-10T00:06:55.764Z,97849.30
2019-06-10T00:09:25.309Z,97847.45
2019-06-10T00:11:54.799Z,97846.77
2019-06-10T00:14:24.233Z,97846.42
2019-06-10T00:16:53.763Z,97847.62
2019-06-10T00:19:23.218Z,97849.35
2019-06-10T00:21:52.741Z,97845.66
2019-06-10T00:24:22.185Z,97846.95
2019-06-10T00:26:51.658Z,97833.33
2019-06-10T00:29:22.238Z,97828.11
2019-06-10T00:31:51.996Z,97836.88
2019-06-10T00:34:21.674Z,97834.27
2019-06-10T00:36:51.207Z,97827.44
2019-06-10T00:39:22.220Z,97826.44
2019-06-10T00:41:52.364Z,97818.68
2019-06-10T00:44:21.812Z,97814.39
2019-06-10T00:46:51.759Z,97801.14
2019-06-10T00:49:21.522Z,97801.82
2019-06-10T00:51:51.236Z,97800.27
2019-06-10T00:54:21.871Z,97799.61
2019-06-10T00:56:51.965Z,97799.17
2019-06-10T00:59:22.234Z,97795.06
2019-06-10T01:01:51.750Z,97792.83
2019-06-10T01:04:21.742Z,97787.75
2019-06-10T01:06:51.772Z,97790.20
2019-06-10T01:09:21.914Z,97794.20
2019-06-10T01:11:51.991Z,97792.40
2019-06-10T01:14:21.821Z,97798.73
2019-06-10T01:16:51.431Z,97790.69
2019-06-10T01:19:21.840Z,97793.14
2019-06-10T01:21:51.624Z,97792.67
2019-06-10T01:24:22.286Z,97790.91
2019-06-10T01:26:51.990Z,97788.92
2019-06-10T01:29:21.473Z,97800.96
2019-06-10T01:31:51.397Z,97802.51
2019-06-10T01:34:21.722Z,97805.29
2019-06-10T01:36:51.508Z,97801.78
2019-06-10T01:39:22.629Z,97807.11
2019-06-10T01:41:52.174Z,97800.39
2019-06-10T01:44:22.205Z,97799.48
2019-06-10T01:46:51.922Z,97797.85
2019-06-10T01:49:21.561Z,97800.99
2019-06-10T01:51:51.697Z,97802.45
2019-06-10T01:54:21.555Z,97794.18
2019-06-10T01:56:51.344Z,97782.52
2019-06-10T01:59:21.963Z,97785.81
2019-06-10T02:02:09.827Z,97778.99
2019-06-10T02:04:41.135Z,97780.08
2019-06-10T02:07:12.106Z,97775.32
2019-06-10T02:09:41.974Z,97778.56
2019-06-10T02:12:14.572Z,97778.55
2019-06-10T02:14:43.094Z,97777.55
2019-06-10T02:17:15.750Z,97769.37
2019-06-10T02:19:43.797Z,97761.53
2019-06-10T02:22:16.642Z,97756.01
2019-06-10T02:24:44.581Z,97749.78
2019-06-10T02:27:14.814Z,97740.44
2019-06-10T02:29:45.451Z,97735.02
2019-06-10T02:32:22.565Z,97735.84
2019-06-10T02:35:01.888Z,97732.56
2019-06-10T02:37:21.695Z,97734.86
2019-06-10T02:39:48.863Z,97731.20
2019-06-10T02:42:22.169Z,97730.76
2019-06-10T02:44:54.097Z,97725.77
2019-06-10T02:47:26.374Z,97721.81
2019-06-10T02:50:02.621Z,97715.22
2019-06-10T02:52:32.650Z,97713.48
2019-06-10T02:54:56.072Z,97709.80
2019-06-10T02:57:34.980Z,97708.47
2019-06-10T02:59:56.801Z,97700.05
2019-06-10T03:02:30.037Z,97700.77
2019-06-10T03:04:57.507Z,97690.87
2019-06-10T03:07:31.119Z,97690.10
2019-06-10T03:09:58.458Z,97690.78
2019-06-10T03:12:28.247Z,97696.77
2019-06-10T03:14:57.671Z,97700.81
2019-06-10T03:17:28.247Z,97699.83
2019-06-10T03:19:57.809Z,97704.71
2019-06-10T03:22:28.484Z,97705.58
2019-06-10T03:24:58.006Z,97692.80
2019-06-10T03:27:27.953Z,97696.23
2019-06-10T03:29:57.441Z,97705.95
2019-06-10T03:32:33.178Z,97711.67
2019-06-10T03:34:58.100Z,97713.91
2019-06-10T03:37:27.779Z,97714.05
2019-06-10T03:39:57.349Z,97722.17
2019-06-10T03:42:28.229Z,97723.47
2019-06-10T03:44:57.730Z,97718.58
2019-06-10T03:47:28.757Z,97722.02
2019-06-10T03:49:58.375Z,97729.92
2019-06-10T03:52:28.507Z,97726.94
2019-06-10T03:54:58.119Z,97723.47
2019-06-10T03:57:28.663Z,97724.85
2019-06-10T03:59:58.274Z,97729.59
2019-06-10T04:02:28.499Z,97730.28
2019-06-10T04:04:58.189Z,97729.28
2019-06-10T04:07:30.949Z,97734.57
2019-06-10T04:09:58.871Z,97726.99
2019-06-10T04:12:29.178Z,97724.80
2019-06-10T04:14:58.672Z,97728.75
2019-06-10T04:17:28.782Z,97733.44
2019-06-10T04:20:09.234Z,97735.82
2019-06-10T04:22:29.540Z,97733.06
2019-06-10T04:24:59.049Z,97718.05
2019-06-10T04:27:28.593Z,97714.92
2019-06-10T04:29:58.159Z,97716.36
2019-06-10T04:32:29.041Z,97711.44
2019-06-10T04:34:58.609Z,97711.66
2019-06-10T04:37:29.535Z,97710.88
2019-06-10T04:39:59.052Z,97705.52
2019-06-10T04:42:28.908Z,97701.30
2019-06-10T04:44:58.580Z,97702.03
2019-06-10T04:47:29.555Z,97703.14
2019-06-10T04:49:59.128Z,97694.03
2019-06-10T04:52:29.802Z,97695.53
2019-06-10T04:55:02.326Z,97695.41
2019-06-10T04:57:32.831Z,97696.63
2019-06-10T05:00:07.024Z,97694.34
2019-06-10T05:02:33.677Z,97696.61
2019-06-10T05:05:03.252Z,97692.44
2019-06-10T05:07:36.803Z,97689.77
2019-06-10T05:10:07.820Z,97694.75
2019-06-10T05:12:37.371Z,97691.64
2019-06-10T05:15:07.763Z,97695.60
2019-06-10T05:20:09.532Z,97689.07
2019-06-10T05:22:39.037Z,97686.64
2019-06-10T05:25:08.553Z,97687.38
2019-06-10T05:27:38.155Z,97691.21
2019-06-10T05:30:09.032Z,97685.10
2019-06-10T05:32:38.527Z,97683.78
2019-06-10T05:35:08.229Z,97681.22
2019-06-10T05:37:37.726Z,97676.59
2019-06-10T05:40:08.171Z,97672.28
2019-06-10T05:42:37.660Z,97676.08
2019-06-10T05:45:08.597Z,97669.41
2019-06-10T05:47:38.112Z,97665.95
2019-06-10T05:50:08.332Z,97667.04
2019-06-10T05:52:37.815Z,97663.03
2019-06-10T05:55:07.395Z,97665.19
2019-06-10T05:57:36.902Z,97666.17
2019-06-10T06:00:13.932Z,97674.93
2019-06-10T06:02:43.290Z,97689.09
2019-06-10T06:05:13.403Z,97689.72
2019-06-10T06:07:42.868Z,97690.16
2019-06-10T06:10:13.749Z,97685.63
2019-06-10T06:12:43.192Z,97682.92
2019-06-10T06:17:43.234Z,97675.46
2019-06-10T06:20:13.450Z,97675.01
2019-06-10T06:22:43.190Z,97668.41
2019-06-10T06:25:15.336Z,97675.69
2019-06-10T06:27:44.528Z,97679.88
2019-06-10T06:30:18.545Z,97677.37
2019-06-10T06:32:46.158Z,97678.32
2019-06-10T06:35:15.699Z,97685.50
2019-06-10T06:37:45.210Z,97682.31
2019-06-10T06:40:15.991Z,97673.80
2019-06-10T06:42:45.468Z,97684.52
2019-06-10T06:45:16.361Z,97677.84
2019-06-10T06:47:45.813Z,97682.02
2019-06-10T06:50:15.724Z,97683.34
2019-06-10T06:53:15.722Z,97687.67
2019-06-10T06:55:17.901Z,97686.08
2019-06-10T06:57:47.407Z,97691.33
2019-06-10T07:00:41.021Z,97687.21
2019-06-10T07:02:52.939Z,97690.67
2019-06-10T07:05:22.936Z,97698.52
2019-06-10T07:07:53.265Z,97693.66
2019-06-10T07:10:22.966Z,97688.29
2019-06-10T07:12:53.344Z,97691.27
2019-06-10T07:15:47.070Z,97688.97
2019-06-10T07:18:15.270Z,97687.73
2019-06-10T07:20:45.896Z,97682.21
2019-06-10T07:23:15.478Z,97684.73
2019-06-10T07:25:47.562Z,97681.96
2019-06-10T07:28:16.177Z,97676.66
2019-06-10T07:30:51.219Z,97674.03
2019-06-10T07:33:16.888Z,97676.66
2019-06-10T07:35:46.350Z,97678.69
2019-06-10T07:38:15.840Z,97667.95
2019-06-10T07:40:45.928Z,97659.36
2019-06-10T07:43:15.482Z,97660.96
2019-06-10T07:45:47.777Z,97663.84
2019-06-10T07:48:16.167Z,97663.33
2019-06-10T07:50:45.909Z,97669.30
2019-06-10T07:53:15.394Z,97665.88
2019-06-10T07:55:46.545Z,97660.96
2019-06-10T07:58:16.241Z,97654.84
2019-06-10T08:00:48.030Z,97658.27
2019-06-10T08:03:17.003Z,97648.80
2019-06-10T08:05:46.702Z,97656.75
2019-06-10T08:08:16.337Z,97657.66
2019-06-10T08:10:46.931Z,97647.63
2019-06-10T08:13:17.118Z,97652.58
2019-06-10T08:15:48.262Z,97648.67
2019-06-10T08:18:17.962Z,97646.25
2019-06-10T08:20:48.003Z,97640.44
2019-06-10T08:23:19.438Z,97651.77
2019-06-10T08:25:54.642Z,97650.09
2019-06-10T08:28:23.000Z,97649.35
2019-06-10T08:30:53.153Z,97650.19
2019-06-10T08:33:23.063Z,97646.30
2019-06-10T08:35:59.386Z,97636.02
2019-06-10T08:38:23.652Z,97633.91
2019-06-10T08:40:53.251Z,97631.92
2019-06-10T08:43:22.855Z,97636.17
2019-06-10T08:45:52.975Z,97637.94
2019-06-10T08:48:23.032Z,97639.19
2019-06-10T08:50:53.732Z,97640.92
2019-06-10T08:53:23.207Z,97635.62
2019-06-10T08:55:53.473Z,97622.27
2019-06-10T08:58:23.390Z,97627.09
2019-06-10T09:00:53.785Z,97620.31
2019-06-10T09:03:23.639Z,97612.73
2019-06-10T09:05:55.161Z,97610.20
2019-06-10T09:08:25.228Z,97606.00
2019-06-10T09:10:55.405Z,97604.83
2019-06-10T09:13:25.114Z,97609.58
2019-06-10T09:16:10.060Z,97600.47
2019-06-10T09:18:25.768Z,97607.10
2019-06-10T09:20:56.224Z,97606.04
2019-06-10T09:23:26.080Z,97604.18
2019-06-10T09:25:57.539Z,97601.59
2019-06-10T09:28:27.158Z,97600.15
2019-06-10T09:30:59.314Z,97605.21
2019-06-10T09:33:28.052Z,97594.83
2019-06-10T09:35:57.512Z,97591.01
2019-06-10T09:38:27.118Z,97583.75
2019-06-10T09:41:01.712Z,97592.33
2019-06-10T09:43:27.833Z,97582.51
2019-06-10T09:45:57.416Z,97585.52
2019-06-10T09:48:27.403Z,97589.13
2019-06-10T09:50:58.933Z,97586.98
2019-06-10T09:53:35.031Z,97592.41
2019-06-10T09:55:59.458Z,97594.64
2019-06-10T09:58:28.955Z,97591.78
2019-06-10T10:00:59.498Z,97594.55
2019-06-10T10:03:28.945Z,97597.08
2019-06-10T10:06:09.910Z,97592.91
2019-06-10T10:08:29.579Z,97593.66
2019-06-10T10:10:59.412Z,97591.14
2019-06-10T10:13:29.101Z,97590.41
2019-06-10T10:15:58.777Z,97594.36
2019-06-10T10:18:28.300Z,97597.09
2019-06-10T10:21:00.276Z,97599.45
2019-06-10T10:23:43.353Z,97594.41
2019-06-10T10:26:03.179Z,97595.72
2019-06-10T10:28:33.464Z,97588.96
2019-06-10T10:31:03.916Z,97582.66
2019-06-10T10:33:34.416Z,97579.64
2019-06-10T10:36:03.839Z,97572.09
2019-06-10T10:38:34.913Z,97574.94
2019-06-10T10:41:05.182Z,97570.45
2019-06-10T10:43:37.655Z,97565.67
2019-06-10T10:46:06.400Z,97568.52
2019-06-10T10:48:35.922Z,97560.34
2019-06-10T10:51:05.428Z,97552.13
2019-06-10T10:53:34.901Z,97551.11
2019-06-10T10:56:04.405Z,97547.84
2019-06-10T10:58:33.857Z,97548.47
2019-06-10T11:01:04.672Z,97544.88
2019-06-10T11:03:34.467Z,97537.63
2019-06-10T11:06:03.978Z,97536.44
2019-06-10T11:08:33.853Z,97528.69
2019-06-10T11:11:05.208Z,97533.06
2019-06-10T11:13:37.151Z,97536.88
2019-06-10T11:16:06.750Z,97524.95
2019-06-10T11:18:36.330Z,97522.25
2019-06-10T11:21:06.041Z,97520.94
2019-06-10T11:23:36.048Z,97518.03
2019-06-10T11:26:05.853Z,97509.59
2019-06-10T11:28:35.394Z,97512.08
2019-06-10T11:31:05.329Z,97507.20
2019-06-10T11:33:34.778Z,97499.45
2019-06-10T11:36:04.375Z,97499.11
2019-06-10T11:38:33.907Z,97497.36
2019-06-10T11:41:03.707Z,97494.94
2019-06-10T11:43:33.451Z,97494.73
2019-06-10T11:46:07.239Z,97505.50
2019-06-10T11:48:34.059Z,97503.48
2019-06-10T11:51:04.541Z,97500.05
2019-06-10T11:53:34.702Z,97498.91
2019-06-10T11:56:04.855Z,97498.09
2019-06-10T11:58:34.316Z,97496.55
2019-06-10T12:01:04.249Z,97482.72
2019-06-10T12:03:34.104Z,97475.91
2019-06-10T12:06:05.162Z,97479.47
2019-06-10T12:08:34.869Z,97486.97
2019-06-10T12:11:04.397Z,97477.81
2019-06-10T12:13:34.641Z,97480.23
2019-06-10T12:16:51.052Z,97483.22
2019-06-10T12:18:35.694Z,97477.52
2019-06-10T12:21:05.509Z,97473.05
2019-06-10T12:23:35.000Z,97466.94
2019-06-10T12:26:05.102Z,97468.42
2019-06-10T12:28:34.994Z,97464.88
2019-06-10T12:31:07.094Z,97460.79
2019-06-10T12:33:35.635Z,97454.34
2019-06-10T12:36:07.272Z,97446.93
2019-06-10T12:38:37.141Z,97446.94
2019-06-10T12:41:09.695Z,97447.39
2019-06-10T12:43:37.752Z,97450.82
2019-06-10T12:46:07.332Z,97447.66
2019-06-10T12:48:36.810Z,97446.78
2019-06-10T12:51:09.357Z,97441.91
2019-06-10T12:53:37.447Z,97436.52
2019-06-10T12:56:10.592Z,97433.67
2019-06-10T12:58:38.122Z,97430.53
2019-06-10T13:01:08.003Z,97438.95
2019-06-10T13:03:37.686Z,97446.28
2019-06-10T13:06:08.009Z,97441.63
2019-06-10T13:08:38.667Z,97442.80
2019-06-10T13:11:08.426Z,97434.22
2019-06-10T13:13:37.939Z,97434.57
2019-06-10T13:16:10.111Z,97439.00
2019-06-10T13:18:38.573Z,97439.94
2019-06-10T13:21:13.081Z,97436.89
2019-06-10T13:23:39.214Z,97436.41
2019-06-10T13:26:15.058Z,97422.48
2019-06-10T13:28:39.875Z,97411.90
2019-06-10T13:31:10.211Z,97400.13
2019-06-10T13:33:42.702Z,97387.82
2019-06-10T13:36:12.358Z,97397.45
2019-06-10T13:38:42.805Z,97399.11
2019-06-10T13:41:12.548Z,97388.65
2019-06-10T13:43:43.423Z,97398.05
2019-06-10T13:46:13.229Z,97399.84
2019-06-10T13:48:43.227Z,97399.41
2019-06-10T13:51:15.491Z,97405.89
2019-06-10T13:53:46.270Z,97397.95
2019-06-10T13:56:38.296Z,97403.11
2019-06-10T13:58:46.590Z,97403.91
2019-06-10T14:01:21.349Z,97405.93
2019-06-10T14:03:47.341Z,97396.70
2019-06-10T14:06:33.086Z,97400.59
2019-06-10T14:08:48.109Z,97406.88
2019-06-10T14:11:19.061Z,97410.38
2019-06-10T14:13:48.684Z,97403.27
2019-06-10T14:16:18.144Z,97404.27
2019-06-10T14:18:47.666Z,97400.93
2019-06-10T14:21:18.394Z,97403.53
2019-06-10T14:23:48.250Z,97402.52
2019-06-10T14:26:31.207Z,97404.00
2019-06-10T14:28:48.887Z,97405.12
2019-06-10T14:31:38.745Z,97405.76
2019-06-10T14:33:49.499Z,97410.95
2019-06-10T14:36:18.949Z,97408.48
2019-06-10T14:38:48.397Z,97410.72
2019-06-10T14:41:17.852Z,97408.25
2019-06-10T14:43:47.313Z,97410.05
2019-06-10T14:46:17.665Z,97416.69
2019-06-10T14:48:47.197Z,97418.16
2019-06-10T14:51:17.194Z,97416.47
2019-06-10T14:53:46.676Z,97419.91
2019-06-10T14:56:19.265Z,97413.49
2019-06-10T14:58:47.318Z,97417.05
2019-06-10T15:01:21.936Z,97422.44
2019-06-10T15:03:47.948Z,97415.97
2019-06-10T15:06:17.413Z,97417.28
2019-06-10T15:08:47.137Z,97415.18
2019-06-10T15:11:16.566Z,97413.49
2019-06-10T15:13:46.018Z,97410.22
2019-06-10T15:16:16.508Z,97406.05
2019-06-10T15:18:46.117Z,97407.16
2019-06-10T15:21:15.553Z,97400.97
2019-06-10T15:23:45.001Z,97394.77
2019-06-10T15:26:16.156Z,97387.69
2019-06-10T15:28:45.658Z,97387.65
2019-06-10T15:31:16.802Z,97387.56
2019-06-10T15:33:46.304Z,97386.31
2019-06-10T15:36:15.761Z,97381.56
2019-06-10T15:38:45.209Z,97386.84
2019-06-10T15:41:17.892Z,97384.78
2019-06-10T15:43:45.843Z,97387.48
2019-06-10T15:46:16.296Z,97386.16
2019-06-10T15:48:46.486Z,97387.74
2019-06-10T15:51:19.169Z,97392.45
2019-06-10T15:53:47.111Z,97387.86
2019-06-10T15:56:29.349Z,97392.06
2019-06-10T15:58:47.740Z,97391.27
2019-06-10T16:01:20.373Z,97391.12
2019-06-10T16:03:48.444Z,97390.50
2019-06-10T16:06:18.172Z,97391.72
2019-06-10T16:08:47.622Z,97390.61
2019-06-10T16:11:18.885Z,97382.61
2019-06-10T16:13:48.298Z,97390.65
2019-06-10T16:16:18.911Z,97396.14
2019-06-10T16:18:48.501Z,97398.94
2019-06-10T16:21:19.140Z,97399.42
2019-06-10T16:23:49.135Z,97392.83
2019-06-10T16:26:19.943Z,97392.13
2019-06-10T16:28:49.422Z,97384.94
2019-06-10T16:31:18.878Z,97379.79
2019-06-10T16:33:49.610Z,97366.06
2019-06-10T16:36:19.197Z,97365.58
2019-06-10T16:38:48.912Z,97368.69
2019-06-10T16:41:19.483Z,97374.67
2019-06-10T16:43:48.980Z,97371.91
2019-06-10T16:46:18.451Z,97383.17
2019-06-10T16:48:47.908Z,97404.19
2019-06-10T16:51:17.479Z,97403.73
2019-06-10T16:53:46.906Z,97407.18
2019-06-10T16:56:17.645Z,97410.66
2019-06-10T16:58:47.212Z,97411.61
2019-06-10T17:01:18.205Z,97417.13
2019-06-10T17:03:47.890Z,97413.73
2019-06-10T17:06:17.513Z,97411.36
2019-06-10T17:08:46.999Z,97414.56
2019-06-10T17:11:16.445Z,97419.30
2019-06-10T17:13:46.010Z,97418.72
2019-06-10T17:16:15.541Z,97421.80
2019-06-10T17:18:44.995Z,97418.92
2019-06-10T17:21:14.453Z,97419.27
2019-06-10T17:23:43.935Z,97416.87
2019-06-10T17:26:13.377Z,97420.61
2019-06-10T17:28:43.026Z,97414.73
2019-06-10T17:31:12.459Z,97402.52
2019-06-10T17:33:42.671Z,97399.16
2019-06-10T17:36:12.704Z,97392.66
2019-06-10T17:38:42.925Z,97398.64
2019-06-10T17:41:13.414Z,97396.34
2019-06-10T17:43:43.109Z,97392.91
2019-06-10T17:46:14.294Z,97389.94
2019-06-10T17:48:43.758Z,97385.08
2019-06-10T17:51:13.340Z,97390.74
2019-06-10T17:53:42.868Z,97394.36
2019-06-10T17:56:13.322Z,97383.87
2019-06-10T17:58:53.397Z,97390.20
2019-06-10T18:01:14.115Z,97397.11
2019-06-10T18:03:43.586Z,97394.66
2019-06-10T18:06:13.419Z,97393.20
2019-06-10T18:08:43.053Z,97391.69
2019-06-10T18:11:13.027Z,97396.95
2019-06-10T18:13:43.041Z,97411.27
2019-06-10T18:16:13.142Z,97405.64
2019-06-10T18:18:42.895Z,97408.34
2019-06-10T18:21:12.840Z,97405.94
2019-06-10T18:23:43.428Z,97404.75
2019-06-10T18:26:13.184Z,97398.36
2019-06-10T18:29:00.955Z,97392.84
2019-06-10T18:31:13.795Z,97376.47
2019-06-10T18:33:43.253Z,97387.19
2019-06-10T18:36:12.697Z,97387.83
2019-06-10T18:38:43.298Z,97387.56
2019-06-10T18:41:13.003Z,97393.33
2019-06-10T18:43:42.440Z,97390.78
2019-06-10T18:46:12.669Z,97386.59
2019-06-10T18:48:43.063Z,97393.19
2019-06-10T18:51:12.950Z,97393.66
2019-06-10T18:53:42.743Z,97388.28
2019-06-10T18:56:12.925Z,97389.09
2019-06-10T18:58:42.724Z,97390.85
2019-06-10T19:01:12.668Z,97394.28
2019-06-10T19:03:43.074Z,97394.16
2019-06-10T19:06:12.817Z,97391.83
2019-06-10T19:08:44.334Z,97386.78
2019-06-10T19:11:13.413Z,97386.98
2019-06-10T19:13:43.734Z,97386.09
2019-06-10T19:16:13.314Z,97379.55
2019-06-10T19:18:43.342Z,97381.00
2019-06-10T19:21:13.233Z,97376.52
2019-06-10T19:23:43.905Z,97366.65
2019-06-10T19:26:13.693Z,97367.64
2019-06-10T19:28:45.253Z,97359.62
2019-06-10T19:31:14.621Z,97358.03
2019-06-10T19:33:45.213Z,97362.55
2019-06-10T19:36:15.006Z,97367.77
2019-06-10T19:38:44.556Z,97374.09
2019-06-10T19:41:14.785Z,97374.09
2019-06-10T19:43:45.529Z,97365.14
2019-06-10T19:46:15.109Z,97358.48
2019-06-10T19:48:57.107Z,97349.39
2019-06-10T19:51:15.777Z,97356.60
2019-06-10T19:53:45.273Z,97350.45
2019-06-10T19:56:14.678Z,97346.23
2019-06-10T19:58:46.297Z,97345.07
2019-06-10T20:01:15.288Z,97342.13
2019-06-10T20:03:46.789Z,97342.42
2019-06-10T20:06:15.992Z,97343.41
2019-06-10T20:08:46.189Z,97339.09
2019-06-10T20:11:15.782Z,97338.02
2019-06-10T20:13:46.722Z,97337.99
2019-06-10T20:16:16.538Z,97334.91
2019-06-10T20:18:48.204Z,97321.08
2019-06-10T20:21:17.174Z,97322.39
2019-06-10T20:23:47.850Z,97324.20
2019-06-10T20:26:17.336Z,97319.17
2019-06-10T20:28:52.158Z,97316.03
2019-06-10T20:31:17.954Z,97313.52
2019-06-10T20:33:47.422Z,97317.84
2019-06-10T20:36:22.289Z,97312.82
2019-06-10T20:38:48.892Z,97309.97
2019-06-10T20:41:18.930Z,97311.03
2019-06-10T20:43:49.613Z,97304.61
2019-06-10T20:46:19.703Z,97306.31
2019-06-10T20:48:51.157Z,97301.02
2019-06-10T20:51:22.547Z,97295.21
2019-06-10T20:53:53.276Z,97292.19
2019-06-10T20:56:23.408Z,97303.05
2019-06-10T20:58:52.973Z,97311.32
2019-06-10T21:01:25.239Z,97321.95
2019-06-10T21:04:03.232Z,97320.28
2019-06-10T21:06:33.155Z,97318.16
2019-06-10T21:09:03.141Z,97327.59
2019-06-10T21:11:32.609Z,97312.38
2019-06-10T21:14:05.121Z,97316.69
2019-06-10T21:16:34.560Z,97312.20
2019-06-10T21:19:10.769Z,97313.50
2019-06-10T21:21:41.007Z,97314.45
2019-06-10T21:24:12.671Z,97316.70
2019-06-10T21:26:56.097Z,97316.76
2019-06-10T21:29:25.523Z,97318.06
2019-06-10T21:31:55.222Z,97321.27
2019-06-10T21:34:26.008Z,97318.95
2019-06-10T21:36:55.466Z,97315.70
2019-06-10T21:39:25.238Z,97320.81
2019-06-10T21:41:55.748Z,97318.67
2019-06-10T21:44:25.449Z,97320.41
2019-06-10T21:46:54.908Z,97328.96
2019-06-10T21:49:24.424Z,97328.92
2019-06-10T21:51:56.843Z,97330.69
2019-06-10T21:54:25.054Z,97319.59
2019-06-10T21:56:55.642Z,97330.90
2019-06-10T21:59:25.349Z,97325.78
2019-06-10T22:01:54.798Z,97315.32
2019-06-10T22:04:32.643Z,97308.88
2019-06-10T22:07:03.325Z,97300.72
2019-06-10T22:09:32.762Z,97300.36
2019-06-10T22:12:02.936Z,97301.45
2019-06-10T22:14:33.052Z,97294.98
2019-06-10T22:17:03.040Z,97308.49
2019-06-10T22:19:32.674Z,97322.27
2019-06-10T22:22:02.791Z,97333.42
2019-06-10T22:24:32.356Z,97341.87
2019-06-10T22:27:02.745Z,97357.86
2019-06-10T22:29:32.338Z,97359.27
2019-06-10T22:32:02.581Z,97366.88
2019-06-10T22:34:32.888Z,97356.97
2019-06-10T22:37:03.254Z,97364.81
2019-06-10T22:39:32.894Z,97375.26
2019-06-10T22:42:03.080Z,97382.94
2019-06-10T22:44:33.176Z,97387.30
2019-06-10T22:47:02.991Z,97401.89
2019-06-10T22:49:32.914Z,97410.27
2019-06-10T22:52:02.406Z,97414.86
2019-06-10T22:54:32.395Z,97421.50
2019-06-10T22:57:02.837Z,97421.98
2019-06-10T22:59:32.519Z,97417.23
2019-06-10T23:02:03.070Z,97409.83
2019-06-10T23:04:55.644Z,97397.16
2019-06-10T23:07:23.176Z,97391.27
2019-06-10T23:09:53.369Z,97389.34
2019-06-10T23:12:23.806Z,97391.27
2019-06-10T23:14:53.673Z,97380.22
2019-06-10T23:17:24.584Z,97380.53
2019-06-10T23:19:56.480Z,97373.71
2019-06-10T23:22:25.226Z,97359.17
2019-06-10T23:24:55.724Z,97349.05
2019-06-10T23:27:25.279Z,97351.78
2019-06-10T23:29:55.995Z,97354.08
2019-06-10T23:32:25.918Z,97357.45
2019-06-10T23:34:58.223Z,97362.39
2019-06-10T23:37:26.561Z,97371.36
2019-06-10T23:39:56.842Z,97365.13
2019-06-10T23:42:26.336Z,97366.57
2019-06-10T23:44:57.223Z,97361.81
2019-06-10T23:47:26.729Z,97348.86
2019-06-10T23:49:57.587Z,97354.23
2019-06-10T23:52:27.130Z,97347.00
2019-06-10T23:54:57.877Z,97342.98
2019-06-10T23:57:27.734Z,97348.02
2019-06-10T23:59:57.169Z,97344.77
